Time;durP1;ratioP1;P1;durP2;ratioP2;P2;SDS_P1;SDS_P2;PMS_P1;PMS_P2;Temp;Humidity;BMP_temperature;BMP_pressure;BME280_temperature;BME280_humidity;BME280_pressure;Samples;Min_cycle;Max_cycle;Signal;HPM_P1;HPM_P2
2023/04/13 00:04:32;;;;;;;;;;;;;;;;;;;;;
2023/04/13 00:10:40;;;;;;;35.80;21.80;;;;;;;7.24;64.96;97908.67;223568;186;137601;-68
2023/04/13 00:16:33;;;;;;;;;;;;;;;;;;;;;
2023/04/13 00:28:58;;;;;;;35.30;23.00;;;;;;;7.15;66.38;97891.11;223701;183;138195;-66
2023/04/13 00:34:14;;;;;;;35.40;23.20;;;;;;;7.13;66.33;97896.21;223596;183;145500;-68
2023/04/13 00:45:43;;;;;;;33.60;23.80;;;;;;;7.06;66.17;97892.93;223520;189;137167;-71
2023/04/13 00:51:15;;;;;;;33.80;23.40;;;;;;;7.01;66.19;97890.15;223515;189;145341;-68
2023/04/13 00:56:53;;;;;;;35.30;24.10;;;;;;;6.97;66.44;97886.02;223632;186;138335;-66
2023/04/13 01:02:06;;;;;;;33.10;22.00;;;;;;;6.94;66.62;97892.17;223567;183;136105;-67
2023/04/13 01:08:01;;;;;;;34.70;21.80;;;;;;;6.95;66.51;97892.42;223609;183;145249;-65
2023/04/13 01:13:20;;;;;;;33.20;22.50;;;;;;;7.01;66.36;97903.33;223656;184;139155;-69
2023/04/13 01:18:32;;;;;;;33.80;21.90;;;;;;;7.05;66.44;97900.40;223644;182;137021;-69
2023/04/13 01:24:33;;;;;;;36.60;22.80;;;;;;;7.05;66.49;97905.90;223666;216;145270;-66
2023/04/13 01:30:27;;;;;;;;;;;;;;;;;;;;;
2023/04/13 01:36:00;;;;;;;36.70;22.70;;;;;;;7.01;66.57;97904.39;223703;194;136891;-67
2023/04/13 01:43:16;;;;;;;;;;;;;;;;;;;;;
2023/04/13 01:48:59;;;;;;;35.60;22.80;;;;;;;6.93;66.54;97913.22;222652;189;135970;-67
2023/04/13 01:54:24;;;;;;;38.00;23.50;;;;;;;6.84;66.75;97915.52;222723;190;143731;-68
2023/04/13 01:59:30;;;;;;;35.30;22.00;;;;;;;6.79;66.67;97910.91;222682;189;139292;-67
2023/04/13 02:42:58;;;;;;;70.20;42.10;;;;;;;6.43;66.40;97921.89;219856;193;666080;-66
2023/04/13 02:48:25;;;;;;;38.40;22.00;;;;;;;6.44;66.20;97917.41;223508;185;136179;-69
2023/04/13 02:53:48;;;;;;;54.20;31.90;;;;;;;6.45;65.97;97920.71;223534;185;143495;-65
2023/04/13 02:59:13;;;;;;;40.10;21.20;;;;;;;6.46;66.34;97924.91;223644;185;138399;-69
2023/04/13 03:05:11;;;;;;;37.00;21.90;;;;;;;6.33;66.36;97924.79;223227;187;136523;-68
2023/04/13 03:10:19;;;;;;;33.30;21.30;;;;;;;6.29;66.70;97917.83;223766;183;145601;-72
2023/04/13 03:21:38;;;;;;;41.20;21.70;;;;;;;6.28;67.19;97918.23;221142;193;666470;-66
2023/04/13 03:27:23;;;;;;;76.90;48.30;;;;;;;6.31;67.55;97919.63;223329;187;136402;-65
2023/04/13 03:45:22;;;;;;;40.70;20.80;;;;;;;6.27;66.39;97910.04;223761;221;127223;-73
2023/04/13 03:50:27;;;;;;;38.80;21.10;;;;;;;6.25;66.44;97907.02;223503;186;147480;-74
2023/04/13 03:55:31;;;;;;;45.70;22.20;;;;;;;6.26;66.11;97914.52;223818;184;138434;-71
2023/04/13 04:00:40;;;;;;;29.50;20.90;;;;;;;6.21;66.05;97918.17;223904;184;136474;-74
2023/04/13 04:05:47;;;;;;;34.60;22.30;;;;;;;6.11;66.33;97921.63;223780;184;143498;-72
2023/04/13 04:10:50;;;;;;;69.60;47.40;;;;;;;6.07;66.83;97916.73;223879;183;138970;-74
2023/04/13 04:15:55;;;;;;;33.60;22.00;;;;;;;6.14;67.05;97916.96;223850;182;138240;-73
2023/04/13 04:21:01;;;;;;;32.60;21.60;;;;;;;6.15;66.77;97918.33;223941;182;145845;-75
2023/04/13 04:26:16;;;;;;;34.80;22.70;;;;;;;6.12;67.01;97926.98;223458;182;138410;-74
2023/04/13 04:32:26;;;;;;;33.20;23.30;;;;;;;6.10;67.28;97924.13;224032;203;136177;-74
2023/04/13 04:42:52;;;;;;;37.70;24.80;;;;;;;6.19;68.24;97920.05;220773;193;686543;-72
2023/04/13 05:04:44;;;;;;;36.90;25.40;;;;;;;6.83;68.21;97911.02;223835;183;143561;-66
2023/04/13 05:09:56;;;;;;;36.30;25.00;;;;;;;6.94;68.01;97912.77;223851;184;138092;-66
2023/04/13 05:15:41;;;;;;;35.30;26.10;;;;;;;6.99;67.91;97912.62;223814;184;136490;-68
2023/04/13 05:21:27;;;;;;;38.60;25.70;;;;;;;7.06;67.87;97909.88;223468;188;143767;-66
2023/04/13 05:26:42;;;;;;;39.40;25.90;;;;;;;7.16;68.17;97905.55;223848;183;138356;-69
2023/04/13 05:31:49;;;;;;;39.80;25.80;;;;;;;7.30;68.09;97902.28;223953;184;136905;-70
2023/04/13 05:37:27;;;;;;;37.80;25.50;;;;;;;7.42;67.82;97906.23;223766;184;143516;-70
2023/04/13 05:42:25;;;;;;;40.60;24.50;;;;;;;7.59;67.65;97910.95;223752;184;138259;-69
2023/04/13 05:48:11;;;;;;;38.40;24.90;;;;;;;7.73;67.59;97919.50;223751;184;135932;-69
2023/04/13 05:53:17;;;;;;;35.60;23.20;;;;;;;7.89;67.42;97918.77;223658;184;147382;-67
2023/04/13 05:58:27;;;;;;;35.60;23.10;;;;;;;8.11;67.29;97920.23;223565;185;138909;-72
2023/04/13 06:03:50;;;;;;;34.10;22.40;;;;;;;8.38;67.01;97923.46;222018;182;136955;-70
2023/04/13 06:08:56;;;;;;;30.20;21.10;;;;;;;8.64;66.49;97921.79;223891;183;145377;-68
2023/04/13 06:14:01;;;;;;;36.80;20.50;;;;;;;8.81;65.82;97918.63;223897;182;139508;-69
2023/04/13 06:19:06;;;;;;;36.10;21.60;;;;;;;8.93;65.41;97916.27;223875;182;157752;-67
2023/04/13 06:24:10;;;;;;;30.50;21.50;;;;;;;9.01;65.20;97915.55;223950;182;145620;-72
2023/04/13 06:29:45;;;;;;;;;;;;;;;;;;;;;
2023/04/13 06:43:08;;;;;;;47.10;25.60;;;;;;;9.33;65.74;97921.69;220033;193;665437;-73
2023/04/13 06:48:46;;;;;;;35.70;23.10;;;;;;;9.48;65.64;97926.90;221385;183;136891;-68
2023/04/13 06:54:08;;;;;;;35.00;22.10;;;;;;;9.62;65.40;97931.31;222917;183;228833;-67
2023/04/13 06:59:15;;;;;;;38.30;22.00;;;;;;;9.74;65.08;97927.79;223771;183;138182;-68
2023/04/13 07:04:37;;;;;;;38.30;21.10;;;;;;;9.85;64.77;97923.05;223797;183;136993;-72
2023/04/13 07:09:43;;;;;;;27.40;18.30;;;;;;;9.99;64.88;97918.05;223840;183;145565;-73
2023/04/13 07:14:48;;;;;;;32.80;16.10;;;;;;;10.11;64.45;97925.25;223820;182;138381;-74
2023/04/13 07:19:54;;;;;;;25.50;17.20;;;;;;;10.24;64.04;97926.77;223939;183;137645;-72
2023/04/13 07:24:58;;;;;;;25.50;17.20;;;;;;;10.37;63.56;97925.76;223848;183;144461;-73
2023/04/13 07:30:07;;;;;;;28.50;18.10;;;;;;;10.50;63.49;97914.74;223797;182;138317;-71
2023/04/13 07:35:16;;;;;;;31.30;18.90;;;;;;;10.67;63.17;97915.49;221513;183;137506;-71
2023/04/13 07:40:20;;;;;;;25.80;17.60;;;;;;;10.86;63.28;97913.11;223464;182;145468;-73
2023/04/13 07:45:35;;;;;;;28.40;17.80;;;;;;;11.04;62.76;97916.59;223969;182;138528;-75
2023/04/13 07:50:43;;;;;;;27.50;16.70;;;;;;;11.19;62.50;97920.35;223955;183;138534;-76
2023/04/13 07:55:50;;;;;;;27.20;14.80;;;;;;;11.35;61.91;97917.02;223851;183;145216;-69
2023/04/13 08:01:06;;;;;;;23.40;14.90;;;;;;;11.51;61.49;97921.38;223849;183;138228;-70
2023/04/13 08:06:10;;;;;;;;;;;;;;;11.64;60.97;97920.85;223865;183;137040;-70
2023/04/13 08:11:15;;;;;;;26.70;13.40;;;;;;;11.72;60.54;97924.77;223985;183;145272;-67
2023/04/13 08:16:20;;;;;;;21.30;11.90;;;;;;;11.81;60.47;97923.87;223813;183;139963;-67
2023/04/13 08:21:25;;;;;;;19.70;11.10;;;;;;;11.98;60.53;97919.19;223872;182;137161;-67
2023/04/13 08:26:29;;;;;;;22.50;10.60;;;;;;;12.15;60.01;97914.40;223940;183;145143;-68
2023/04/13 08:31:34;;;;;;;25.30;12.80;;;;;;;12.33;59.75;97911.77;223734;183;138636;-67
2023/04/13 08:36:40;;;;;;;20.50;11.90;;;;;;;12.50;59.22;97908.10;223797;183;136849;-70
2023/04/13 08:41:46;;;;;;;25.10;13.10;;;;;;;12.67;58.70;97909.66;223841;179;145192;-72
2023/04/13 08:46:52;;;;;;;25.50;12.10;;;;;;;12.81;58.10;97912.71;223838;182;139013;-70
2023/04/13 08:52:05;;;;;;;30.80;12.40;;;;;;;12.99;56.55;97914.10;223794;181;137446;-68
2023/04/13 08:57:11;;;;;;;32.60;13.20;;;;;;;13.17;55.68;97914.95;223855;182;145393;-72
2023/04/13 09:02:23;;;;;;;29.30;13.90;;;;;;;13.38;56.19;97914.89;223874;181;138342;-70
2023/04/13 09:07:55;;;;;;;41.20;14.80;;;;;;;13.55;55.95;97910.61;223864;181;137849;-69
2023/04/13 09:13:00;;;;;;;27.70;14.60;;;;;;;13.77;55.79;97909.08;223923;181;145761;-71
2023/04/13 09:18:09;;;;;;;33.30;14.50;;;;;;;13.96;55.17;97905.48;223960;182;138553;-67
2023/04/13 09:23:21;;;;;;;27.90;13.00;;;;;;;14.10;54.39;97905.42;223917;182;137572;-67
2023/04/13 09:28:25;;;;;;;25.90;13.50;;;;;;;14.22;53.19;97906.29;223835;181;145102;-71
2023/04/13 09:33:34;;;;;;;31.40;12.50;;;;;;;14.34;52.84;97898.87;223885;181;139353;-72
2023/04/13 09:42:54;;;;;;;24.70;10.40;;;;;;;14.71;51.00;97883.96;219889;193;665993;-71
2023/04/13 09:48:01;;;;;;;22.90;11.30;;;;;;;14.83;50.19;97883.63;220870;187;140737;-71
2023/04/13 09:53:09;;;;;;;12.80;5.20;;;;;;;15.04;49.50;97885.13;222449;186;144027;-72
2023/04/13 09:58:16;;;;;;;53.40;35.40;;;;;;;15.29;46.52;97882.13;223236;185;139406;-73
2023/04/13 10:03:22;;;;;;;14.30;8.50;;;;;;;15.66;53.25;97887.67;223376;186;136538;-71
2023/04/13 10:08:26;;;;;;;;;;;;;;;16.56;54.99;97886.50;223510;186;144210;-70
2023/04/13 10:14:00;;;;;;;9.80;5.30;;;;;;;17.28;52.99;97890.98;223805;183;138778;-74
2023/04/13 10:19:08;;;;;;;8.60;4.60;;;;;;;17.87;49.42;97892.43;223628;182;137318;-71
2023/04/13 10:24:12;;;;;;;7.60;4.00;;;;;;;18.20;47.05;97889.94;223715;183;143436;-72
2023/04/13 10:29:28;;;;;;;7.20;3.20;;;;;;;18.23;43.28;97885.75;223564;182;139028;-70
2023/04/13 10:34:34;;;;;;;4.80;2.80;;;;;;;18.04;40.79;97887.18;223367;182;136407;-71
2023/04/13 10:39:38;;;;;;;5.10;2.70;;;;;;;17.98;40.98;97881.94;223587;186;145436;-68
2023/04/13 10:44:50;;;;;;;5.20;2.30;;;;;;;17.90;40.85;97879.27;223491;208;138109;-70
2023/04/13 10:49:53;;;;;;;46.00;35.40;;;;;;;17.87;40.47;97874.58;223646;216;136490;-74
2023/04/13 10:54:57;;;;;;;22.00;14.30;;;;;;;17.86;40.08;97867.28;223629;182;144973;-72
2023/04/13 11:00:03;;;;;;;4.20;2.50;;;;;;;17.83;38.54;97861.73;223648;182;140641;-70
2023/04/13 11:05:06;;;;;;;7.10;3.00;;;;;;;17.72;37.21;97860.53;223637;182;137786;-69
2023/04/13 11:10:11;;;;;;;8.70;3.40;;;;;;;17.66;37.66;97857.84;223539;182;145171;-71
2023/04/13 11:15:23;;;;;;;5.80;2.40;;;;;;;17.86;38.34;97850.38;223587;183;138453;-71
2023/04/13 11:20:32;;;;;;;5.80;2.90;;;;;;;18.03;37.03;97851.16;223656;185;136942;-72
2023/04/13 11:25:35;;;;;;;7.60;3.40;;;;;;;18.19;37.37;97849.59;223612;183;144928;-71
2023/04/13 11:30:38;;;;;;;8.00;3.70;;;;;;;18.45;37.43;97847.70;223658;187;138406;-70
2023/04/13 11:35:45;;;;;;;7.20;3.20;;;;;;;18.79;36.97;97844.59;223541;183;138661;-69
2023/04/13 11:46:30;;;;;;;7.00;3.20;;;;;;;19.57;37.37;97837.77;220511;193;665616;-67
2023/04/13 11:51:34;;;;;;;6.70;3.80;;;;;;;19.98;35.74;97839.55;223506;183;136006;-67
2023/04/13 11:56:37;;;;;;;5.70;3.70;;;;;;;20.19;34.78;97832.62;223555;217;143930;-69
2023/04/13 12:01:48;;;;;;;4.70;3.10;;;;;;;20.30;33.99;97820.97;223449;217;139722;-70
2023/04/13 12:06:55;;;;;;;7.20;3.40;;;;;;;20.48;35.07;97814.52;223434;185;136649;-66
2023/04/13 12:11:58;;;;;;;10.20;3.70;;;;;;;20.81;33.90;97802.59;223542;183;143364;-68
2023/04/13 12:17:12;;;;;;;10.70;3.90;;;;;;;20.97;34.48;97805.15;223560;188;138530;-67
2023/04/13 12:22:37;;;;;;;8.10;3.80;;;;;;;21.23;34.94;97802.48;223601;183;136256;-66
2023/04/13 12:27:58;;;;;;;14.10;4.10;;;;;;;21.61;34.92;97778.37;223556;187;143348;-68
2023/04/13 12:33:02;;;;;;;11.30;3.90;;;;;;;21.88;34.24;97785.92;223502;184;139692;-70
2023/04/13 12:43:02;;;;;;;6.40;3.60;;;;;;;22.11;34.12;97802.99;222115;193;688185;-69
2023/04/13 12:48:07;;;;;;;7.70;3.60;;;;;;;22.36;33.65;97790.81;223147;185;136268;-67
2023/04/13 12:53:13;;;;;;;6.30;3.30;;;;;;;22.58;33.24;97786.96;223435;195;143470;-72
2023/04/13 12:58:16;;;;;;;5.30;3.10;;;;;;;22.85;33.19;97787.89;223743;181;138467;-66
2023/04/13 13:03:20;;;;;;;6.30;3.10;;;;;;;22.65;33.25;97787.40;223590;182;136927;-66
2023/04/13 13:08:23;;;;;;;6.20;3.10;;;;;;;22.58;33.23;97779.58;223596;182;144147;-66
2023/04/13 13:13:26;;;;;;;6.50;3.00;;;;;;;22.51;33.24;97777.16;223660;182;139704;-66
2023/04/13 13:18:30;;;;;;;6.60;3.10;;;;;;;22.16;33.20;97782.52;223660;182;137012;-66
2023/04/13 13:23:51;;;;;;;5.00;2.50;;;;;;;21.60;33.40;97784.11;223670;181;143545;-66
2023/04/13 13:28:54;;;;;;;5.30;2.70;;;;;;;21.12;33.85;97790.83;223542;182;139059;-66
2023/04/13 13:33:58;;;;;;;4.60;2.50;;;;;;;20.68;34.31;97790.76;223571;183;136639;-66
2023/04/13 13:39:07;;;;;;;4.00;2.40;;;;;;;20.30;34.96;97791.48;223676;182;145327;-66
2023/04/13 13:44:15;;;;;;;6.10;2.30;;;;;;;20.04;35.46;97794.19;223579;207;140665;-66
2023/04/13 13:49:19;;;;;;;6.00;2.30;;;;;;;19.79;35.98;97786.86;223527;183;137120;-66
2023/04/13 13:54:41;;;;;;;3.80;2.30;;;;;;;19.61;36.40;97790.23;223575;184;146698;-65
2023/04/13 13:59:45;;;;;;;4.70;2.60;;;;;;;19.41;36.41;97794.20;223566;184;139081;-66
2023/04/13 14:05:02;;;;;;;7.00;2.90;;;;;;;19.23;37.46;97795.30;223722;182;136531;-67
2023/04/13 14:10:10;;;;;;;5.90;2.80;;;;;;;19.07;37.45;97793.02;223589;182;149480;-66
2023/04/13 14:15:14;;;;;;;;;;;;;;;18.95;37.66;97795.66;223548;182;138596;-67
2023/04/13 14:20:18;;;;;;;129.10;92.00;;;;;;;18.85;38.19;97798.41;223730;184;129059;-65
2023/04/13 14:25:22;;;;;;;13.60;6.80;;;;;;;18.80;38.46;97804.80;223676;183;147707;-66
2023/04/13 14:30:27;;;;;;;5.90;2.80;;;;;;;18.80;38.80;97804.74;223575;182;138296;-65
2023/04/13 14:35:31;;;;;;;5.20;2.90;;;;;;;18.78;38.34;97805.41;223626;182;136881;-65
2023/04/13 14:40:35;;;;;;;6.80;2.60;;;;;;;18.67;38.45;97808.75;223565;182;145090;-65
2023/04/13 14:45:39;;;;;;;7.80;2.50;;;;;;;18.58;38.26;97810.54;223520;205;138512;-65
2023/04/13 14:50:43;;;;;;;7.40;2.40;;;;;;;18.44;38.45;97819.42;223732;183;137061;-67
2023/04/13 14:55:47;;;;;;;7.20;2.20;;;;;;;18.32;38.61;97816.92;223847;182;145323;-65
2023/04/13 15:00:52;;;;;;;5.10;2.30;;;;;;;18.18;38.99;97817.27;223631;182;138615;-65
2023/04/13 15:05:58;;;;;;;5.90;2.50;;;;;;;18.07;39.63;97821.17;222487;183;137317;-66
2023/04/13 15:11:21;;;;;;;6.60;3.00;;;;;;;17.94;40.47;97826.52;221874;182;146469;-67
2023/04/13 15:16:25;;;;;;;9.20;3.10;;;;;;;17.84;40.91;97831.49;223565;183;138784;-64
2023/04/13 15:21:35;;;;;;;7.10;3.10;;;;;;;17.76;41.43;97831.98;223654;182;137843;-66
2023/04/13 15:26:40;;;;;;;7.90;3.70;;;;;;;17.71;41.31;97840.42;223701;188;145378;-65
2023/04/13 15:31:45;;;;;;;6.30;3.20;;;;;;;17.67;41.64;97844.29;223628;182;138258;-66
2023/04/13 15:36:49;;;;;;;7.30;3.50;;;;;;;17.60;42.25;97851.52;223593;182;137907;-66
2023/04/13 15:41:53;;;;;;;5.10;3.40;;;;;;;17.55;42.49;97859.55;223711;183;145169;-66
2023/04/13 15:47:00;;;;;;;6.40;3.20;;;;;;;17.50;42.55;97856.14;223738;183;139875;-67
2023/04/13 15:52:08;;;;;;;9.90;4.00;;;;;;;17.46;42.50;97855.36;223620;183;137242;-66
2023/04/13 15:57:15;;;;;;;8.30;4.30;;;;;;;17.42;42.22;97865.63;223682;216;145404;-66
2023/04/13 16:02:19;;;;;;;10.50;3.80;;;;;;;17.36;42.24;97871.52;223728;184;138336;-65
2023/04/13 16:07:26;;;;;;;13.80;4.90;;;;;;;17.15;43.17;97874.35;223684;182;137573;-65
2023/04/13 16:13:00;;;;;;;10.60;4.90;;;;;;;16.97;44.06;97874.32;223830;183;146451;-65
2023/04/13 16:18:18;;;;;;;12.20;5.20;;;;;;;16.79;44.69;97885.14;223670;182;139023;-66
2023/04/13 16:23:31;;;;;;;10.60;4.50;;;;;;;16.64;45.17;97890.44;223559;182;137352;-67
2023/04/13 16:28:38;;;;;;;10.80;4.80;;;;;;;16.50;45.59;97896.71;223687;182;145112;-66
2023/04/13 16:33:49;;;;;;;11.70;5.60;;;;;;;16.38;45.92;97902.33;223606;183;138402;-65
2023/04/13 16:42:58;;;;;;;11.80;6.80;;;;;;;16.23;46.04;97901.94;220227;193;666686;-66
2023/04/13 16:48:01;;;;;;;12.60;6.30;;;;;;;16.01;46.45;97908.14;223509;184;137178;-66
2023/04/13 16:53:05;;;;;;;18.00;7.40;;;;;;;15.83;47.34;97913.91;223620;183;143355;-66
2023/04/13 16:58:10;;;;;;;14.50;7.40;;;;;;;15.66;48.27;97919.67;223638;183;138522;-68
2023/04/13 17:03:14;;;;;;;14.70;7.70;;;;;;;15.54;49.05;97929.47;223695;183;136668;-68
2023/04/13 17:08:17;;;;;;;13.00;7.20;;;;;;;15.41;49.53;97934.55;223596;184;143993;-69
2023/04/13 17:13:21;;;;;;;19.60;11.80;;;;;;;15.35;50.01;97943.48;223505;184;138257;-72
2023/04/13 17:18:24;;;;;;;16.50;7.80;;;;;;;15.31;50.55;97946.65;223669;183;139152;-70
2023/04/13 17:23:28;;;;;;;16.40;8.50;;;;;;;15.26;51.02;97955.10;223555;184;143440;-71
2023/04/13 17:28:31;;;;;;;13.70;8.50;;;;;;;15.23;51.44;97961.84;223585;183;138358;-67
2023/04/13 17:33:34;;;;;;;12.90;8.50;;;;;;;15.26;51.80;97972.13;223593;183;137008;-69
2023/04/13 17:38:38;;;;;;;19.90;10.80;;;;;;;15.24;52.25;97978.37;223606;217;145431;-71
2023/04/13 17:43:41;;;;;;;19.30;11.10;;;;;;;15.20;52.47;97982.20;223547;184;138428;-69
2023/04/13 17:48:44;;;;;;;17.40;11.40;;;;;;;15.15;52.82;97988.02;223264;184;137270;-68
2023/04/13 17:53:48;;;;;;;18.70;12.70;;;;;;;15.06;53.30;97995.17;223480;184;145429;-68
2023/04/13 17:58:51;;;;;;;24.20;12.90;;;;;;;14.97;53.74;98003.44;223439;184;139232;-68
2023/04/13 18:03:57;;;;;;;22.00;13.90;;;;;;;14.86;54.21;98005.67;223429;184;137369;-67
2023/04/13 18:09:04;;;;;;;22.50;14.50;;;;;;;14.78;54.60;98011.66;223532;186;145224;-68
2023/04/13 18:14:10;;;;;;;16.70;12.60;;;;;;;14.73;54.76;98019.77;223358;186;140171;-67
2023/04/13 18:19:15;;;;;;;18.90;11.50;;;;;;;14.60;55.10;98029.42;223505;187;136386;-67
2023/04/13 18:24:18;;;;;;;165.90;112.00;;;;;;;14.53;54.73;98037.89;223596;184;146109;-71
2023/04/13 18:29:21;;;;;;;17.80;9.00;;;;;;;14.43;54.36;98040.98;223335;183;138896;-65
2023/04/13 18:34:28;;;;;;;13.60;6.90;;;;;;;14.33;54.08;98042.61;223490;184;137353;-66
2023/04/13 18:45:09;;;;;;;12.90;8.40;;;;;;;14.17;54.64;98051.11;217645;225;666540;-77
2023/04/13 18:50:12;;;;;;;10.20;7.40;;;;;;;14.01;54.97;98058.27;223339;210;136676;-76
2023/04/13 18:55:16;;;;;;;14.30;8.80;;;;;;;13.90;55.47;98067.30;221217;183;144318;-76
2023/04/13 19:00:19;;;;;;;17.10;9.00;;;;;;;13.75;55.81;98067.57;223543;184;138711;-74
2023/04/13 19:05:23;;;;;;;230.00;182.00;;;;;;;13.66;56.45;98074.48;223534;183;137086;-71
2023/04/13 19:10:27;;;;;;;17.90;11.00;;;;;;;13.70;56.66;98078.77;223680;183;143577;-74
2023/04/13 19:15:30;;;;;;;19.90;11.60;;;;;;;13.63;56.68;98077.96;223609;183;139053;-75
2023/04/13 19:20:34;;;;;;;21.00;11.50;;;;;;;13.54;57.11;98075.92;223636;216;137427;-75
2023/04/13 19:25:38;;;;;;;18.10;11.30;;;;;;;13.52;57.28;98077.33;223595;183;144504;-75
2023/04/13 19:30:41;;;;;;;24.50;12.80;;;;;;;13.48;57.70;98078.41;223668;183;139069;-78
2023/04/13 19:35:44;;;;;;;22.30;13.50;;;;;;;13.41;58.21;98082.95;219579;182;136882;-76
2023/04/13 19:40:48;;;;;;;24.80;15.00;;;;;;;13.36;58.44;98085.14;221167;182;145781;-76
2023/04/13 19:45:52;;;;;;;24.80;14.20;;;;;;;13.35;58.53;98087.56;223593;183;138972;-76
2023/04/13 19:50:56;;;;;;;24.60;13.50;;;;;;;13.36;58.85;98089.42;223770;216;137425;-76
2023/04/13 19:56:00;;;;;;;325.00;243.10;;;;;;;13.34;59.44;98090.01;223646;182;146022;-74
2023/04/13 20:01:06;;;;;;;27.50;18.00;;;;;;;13.38;59.84;98083.20;223698;183;138919;-76
2023/04/13 20:06:10;;;;;;;23.30;14.60;;;;;;;13.31;59.91;98086.14;223873;183;136959;-75
2023/04/13 20:11:14;;;;;;;22.70;14.00;;;;;;;13.26;60.19;98079.98;221249;183;145319;-76
2023/04/13 20:16:17;;;;;;;22.00;14.10;;;;;;;13.23;60.38;98078.13;220276;183;138977;-73
2023/04/13 20:21:20;;;;;;;25.60;15.00;;;;;;;13.20;60.72;98080.72;221932;182;136904;-74
2023/04/13 20:26:25;;;;;;;26.00;15.40;;;;;;;13.15;60.86;98077.41;222354;183;146146;-75
2023/04/13 20:31:31;;;;;;;21.80;14.40;;;;;;;13.10;61.23;98082.27;223893;183;138541;-72
2023/04/13 20:36:35;;;;;;;24.50;15.20;;;;;;;13.11;61.24;98083.64;223744;183;138480;-72
2023/04/13 20:41:38;;;;;;;23.00;15.70;;;;;;;13.09;61.29;98086.30;223872;182;145481;-74
2023/04/13 20:46:48;;;;;;;29.30;15.80;;;;;;;13.00;61.43;98087.61;223857;183;139820;-75
2023/04/13 20:51:56;;;;;;;27.00;16.00;;;;;;;12.91;61.84;98086.27;223893;183;138292;-75
2023/04/13 20:57:00;;;;;;;29.80;16.40;;;;;;;12.90;61.92;98085.98;223864;183;145217;-74
2023/04/13 21:02:04;;;;;;;25.90;15.40;;;;;;;12.86;61.94;98096.63;223717;182;138890;-75
2023/04/13 21:07:10;;;;;;;26.70;16.30;;;;;;;12.80;62.09;98093.55;223819;183;136944;-74
2023/04/13 21:12:13;;;;;;;;;;;;;;;12.79;62.15;98093.36;224000;180;145893;-75
2023/04/13 21:17:17;;;;;;;24.10;14.80;;;;;;;12.80;62.08;98091.46;223868;181;139387;-73
2023/04/13 21:22:20;;;;;;;24.90;14.90;;;;;;;12.80;62.30;98094.70;222128;181;137011;-74
2023/04/13 21:27:24;;;;;;;23.20;15.60;;;;;;;12.77;62.45;98092.92;221092;181;146193;-75
2023/04/13 21:32:27;;;;;;;28.10;15.00;;;;;;;12.79;62.51;98090.27;222791;181;139396;-74
2023/04/13 21:37:31;;;;;;;25.10;14.90;;;;;;;12.83;62.57;98097.52;223307;181;137523;-73
2023/04/13 21:42:36;;;;;;;23.60;16.60;;;;;;;12.81;62.51;98091.79;223858;181;146875;-73
2023/04/13 21:47:39;;;;;;;25.70;16.20;;;;;;;12.74;62.80;98090.52;223828;181;138241;-74
2023/04/13 21:52:43;;;;;;;21.60;14.50;;;;;;;12.68;63.13;98091.10;223900;181;137683;-74
2023/04/13 21:57:46;;;;;;;22.70;14.80;;;;;;;12.66;63.22;98088.78;223901;181;145302;-72
2023/04/13 22:03:17;;;;;;;23.10;14.30;;;;;;;12.66;63.37;98083.84;223893;181;138316;-75
2023/04/13 22:08:20;;;;;;;24.00;15.00;;;;;;;12.65;63.38;98091.87;223849;180;137295;-73
2023/04/13 22:13:24;;;;;;;22.80;15.00;;;;;;;12.59;63.67;98091.54;223892;181;146246;-76
2023/04/13 22:24:21;;;;;;;22.20;15.60;;;;;;;12.45;64.08;98092.70;223906;181;137405;-75
2023/04/13 22:29:24;;;;;;;22.10;15.00;;;;;;;12.37;64.64;98082.16;223881;181;145479;-75
2023/04/13 22:34:28;;;;;;;24.90;15.00;;;;;;;12.39;64.79;98088.06;223890;181;138432;-75
2023/04/13 22:39:31;;;;;;;22.00;15.30;;;;;;;12.44;64.78;98084.19;223948;182;140191;-75
2023/04/13 22:44:35;;;;;;;21.20;15.60;;;;;;;12.45;64.73;98080.91;224019;182;146043;-74
2023/04/13 22:49:38;;;;;;;25.10;16.60;;;;;;;12.45;64.94;98080.59;222073;181;138780;-77
2023/04/13 22:54:42;;;;;;;21.80;15.10;;;;;;;12.45;64.91;98078.80;223505;181;137211;-74
2023/04/13 22:59:45;;;;;;;25.00;15.90;;;;;;;12.43;65.07;98077.05;223845;181;145992;-75
2023/04/13 23:04:49;;;;;;;24.50;15.80;;;;;;;12.37;65.26;98083.26;223879;181;138707;-74
2023/04/13 23:09:53;;;;;;;23.60;17.20;;;;;;;12.33;65.42;98078.27;223846;181;137355;-76
2023/04/13 23:14:56;;;;;;;22.90;16.40;;;;;;;12.28;65.71;98069.24;223935;181;146338;-76
2023/04/13 23:19:59;;;;;;;26.70;16.40;;;;;;;12.16;65.99;98059.58;223927;181;138914;-76
2023/04/13 23:25:04;;;;;;;22.20;14.70;;;;;;;12.17;66.30;98061.67;223893;181;138277;-76
2023/04/13 23:30:08;;;;;;;21.60;15.90;;;;;;;12.19;66.49;98062.55;223903;181;144938;-75
2023/04/13 23:35:11;;;;;;;24.00;16.20;;;;;;;12.17;66.45;98061.95;222455;181;139304;-76
2023/04/13 23:40:15;;;;;;;26.40;16.90;;;;;;;12.16;66.58;98065.79;223875;181;137332;-76
2023/04/13 23:45:18;;;;;;;26.00;16.70;;;;;;;12.12;66.78;98070.40;224131;181;145339;-76
2023/04/13 23:50:21;;;;;;;26.50;17.60;;;;;;;12.11;66.75;98067.19;223942;181;137781;-75
2023/04/13 23:55:26;;;;;;;26.70;17.80;;;;;;;12.11;67.01;98059.63;223860;181;136857;-76
